sensor_id;sensor_type;location;lat;lon;timestamp;P1;durP1;ratioP1;P2;durP2;ratioP2
62332;SDS011;48624;49.812;8.562;2022-12-18T00:01:36;64.40;;;26.67;;
62332;SDS011;48624;49.812;8.562;2022-12-18T00:04:03;52.37;;;23.70;;
62332;SDS011;48624;49.812;8.562;2022-12-18T00:06:29;55.00;;;25.33;;
62332;SDS011;48624;49.812;8.562;2022-12-18T00:08:56;54.67;;;25.50;;
62332;SDS011;48624;49.812;8.562;2022-12-18T00:11:23;49.40;;;23.87;;
62332;SDS011;48624;49.812;8.562;2022-12-18T00:13:51;58.00;;;25.10;;
62332;SDS011;48624;49.812;8.562;2022-12-18T00:16:19;56.07;;;24.23;;
62332;SDS011;48624;49.812;8.562;2022-12-18T00:18:47;57.07;;;23.80;;
62332;SDS011;48624;49.812;8.562;2022-12-18T00:21:13;57.07;;;24.20;;
62332;SDS011;48624;49.812;8.562;2022-12-18T00:23:39;57.17;;;25.17;;
62332;SDS011;48624;49.812;8.562;2022-12-18T00:26:09;51.20;;;23.73;;
62332;SDS011;48624;49.812;8.562;2022-12-18T00:28:47;55.13;;;24.33;;
62332;SDS011;48624;49.812;8.562;2022-12-18T00:31:17;51.97;;;23.97;;
62332;SDS011;48624;49.812;8.562;2022-12-18T00:33:47;56.27;;;24.17;;
62332;SDS011;48624;49.812;8.562;2022-12-18T00:36:17;51.77;;;24.47;;
62332;SDS011;48624;49.812;8.562;2022-12-18T00:38:45;52.70;;;25.97;;
62332;SDS011;48624;49.812;8.562;2022-12-18T00:41:11;58.80;;;25.13;;
62332;SDS011;48624;49.812;8.562;2022-12-18T00:43:38;49.80;;;24.27;;
62332;SDS011;48624;49.812;8.562;2022-12-18T00:46:04;59.17;;;25.50;;
62332;SDS011;48624;49.812;8.562;2022-12-18T00:48:30;52.70;;;25.17;;
62332;SDS011;48624;49.812;8.562;2022-12-18T00:50:55;60.33;;;25.90;;
62332;SDS011;48624;49.812;8.562;2022-12-18T00:53:21;55.13;;;24.93;;
62332;SDS011;48624;49.812;8.562;2022-12-18T00:55:46;45.57;;;23.73;;
62332;SDS011;48624;49.812;8.562;2022-12-18T00:58:12;49.07;;;22.33;;
62332;SDS011;48624;49.812;8.562;2022-12-18T01:00:39;50.27;;;21.53;;
62332;SDS011;48624;49.812;8.562;2022-12-18T01:03:05;46.60;;;23.70;;
62332;SDS011;48624;49.812;8.562;2022-12-18T01:05:30;51.77;;;23.90;;
62332;SDS011;48624;49.812;8.562;2022-12-18T01:07:56;60.77;;;26.83;;
62332;SDS011;48624;49.812;8.562;2022-12-18T01:10:22;58.93;;;27.10;;
62332;SDS011;48624;49.812;8.562;2022-12-18T01:12:48;58.93;;;28.57;;
62332;SDS011;48624;49.812;8.562;2022-12-18T01:15:14;52.00;;;25.70;;
62332;SDS011;48624;49.812;8.562;2022-12-18T01:17:40;54.20;;;25.83;;
62332;SDS011;48624;49.812;8.562;2022-12-18T01:20:06;61.00;;;27.17;;
62332;SDS011;48624;49.812;8.562;2022-12-18T01:22:32;52.93;;;24.83;;
62332;SDS011;48624;49.812;8.562;2022-12-18T01:24:57;61.00;;;27.27;;
62332;SDS011;48624;49.812;8.562;2022-12-18T01:27:23;55.93;;;24.77;;
62332;SDS011;48624;49.812;8.562;2022-12-18T01:29:49;58.83;;;26.77;;
62332;SDS011;48624;49.812;8.562;2022-12-18T01:32:14;54.90;;;27.20;;
62332;SDS011;48624;49.812;8.562;2022-12-18T01:34:39;53.07;;;26.30;;
62332;SDS011;48624;49.812;8.562;2022-12-18T01:37:05;45.63;;;22.93;;
62332;SDS011;48624;49.812;8.562;2022-12-18T01:39:30;51.87;;;22.10;;
62332;SDS011;48624;49.812;8.562;2022-12-18T01:41:57;38.27;;;20.37;;
62332;SDS011;48624;49.812;8.562;2022-12-18T01:50:12;52.80;;;23.83;;
62332;SDS011;48624;49.812;8.562;2022-12-18T01:52:43;42.57;;;22.40;;
62332;SDS011;48624;49.812;8.562;2022-12-18T01:55:12;51.63;;;23.47;;
62332;SDS011;48624;49.812;8.562;2022-12-18T01:57:41;52.53;;;23.77;;
62332;SDS011;48624;49.812;8.562;2022-12-18T02:00:08;55.10;;;24.97;;
62332;SDS011;48624;49.812;8.562;2022-12-18T02:02:45;48.73;;;21.20;;
62332;SDS011;48624;49.812;8.562;2022-12-18T02:05:11;48.20;;;22.23;;
62332;SDS011;48624;49.812;8.562;2022-12-18T02:07:46;49.07;;;23.07;;
62332;SDS011;48624;49.812;8.562;2022-12-18T02:10:15;48.90;;;21.27;;
62332;SDS011;48624;49.812;8.562;2022-12-18T02:12:55;53.13;;;24.77;;
62332;SDS011;48624;49.812;8.562;2022-12-18T02:18:08;57.27;;;26.17;;
62332;SDS011;48624;49.812;8.562;2022-12-18T02:20:48;50.23;;;24.37;;
62332;SDS011;48624;49.812;8.562;2022-12-18T02:28:28;43.17;;;22.10;;
62332;SDS011;48624;49.812;8.562;2022-12-18T02:30:59;48.07;;;25.30;;
62332;SDS011;48624;49.812;8.562;2022-12-18T02:33:27;52.70;;;23.57;;
62332;SDS011;48624;49.812;8.562;2022-12-18T02:35:55;53.10;;;25.53;;
62332;SDS011;48624;49.812;8.562;2022-12-18T02:38:23;54.47;;;24.87;;
62332;SDS011;48624;49.812;8.562;2022-12-18T02:40:50;50.37;;;24.47;;
62332;SDS011;48624;49.812;8.562;2022-12-18T02:43:18;46.87;;;22.90;;
62332;SDS011;48624;49.812;8.562;2022-12-18T02:45:54;54.57;;;25.83;;
62332;SDS011;48624;49.812;8.562;2022-12-18T02:48:23;52.33;;;24.97;;
62332;SDS011;48624;49.812;8.562;2022-12-18T02:51:03;61.53;;;28.63;;
62332;SDS011;48624;49.812;8.562;2022-12-18T02:53:36;50.60;;;25.27;;
62332;SDS011;48624;49.812;8.562;2022-12-18T02:56:13;54.27;;;25.57;;
62332;SDS011;48624;49.812;8.562;2022-12-18T03:01:38;53.93;;;26.03;;
62332;SDS011;48624;49.812;8.562;2022-12-18T03:04:09;52.23;;;22.63;;
62332;SDS011;48624;49.812;8.562;2022-12-18T03:06:40;41.97;;;22.27;;
62332;SDS011;48624;49.812;8.562;2022-12-18T03:09:10;49.80;;;24.57;;
62332;SDS011;48624;49.812;8.562;2022-12-18T03:11:40;44.70;;;21.90;;
62332;SDS011;48624;49.812;8.562;2022-12-18T03:14:28;52.87;;;23.07;;
62332;SDS011;48624;49.812;8.562;2022-12-18T03:16:59;41.77;;;20.13;;
62332;SDS011;48624;49.812;8.562;2022-12-18T03:19:28;38.17;;;20.77;;
62332;SDS011;48624;49.812;8.562;2022-12-18T03:21:57;42.23;;;20.10;;
62332;SDS011;48624;49.812;8.562;2022-12-18T03:24:26;47.70;;;22.53;;
62332;SDS011;48624;49.812;8.562;2022-12-18T03:27:00;42.30;;;20.50;;
62332;SDS011;48624;49.812;8.562;2022-12-18T03:29:30;34.77;;;20.10;;
62332;SDS011;48624;49.812;8.562;2022-12-18T03:32:03;41.27;;;22.13;;
62332;SDS011;48624;49.812;8.562;2022-12-18T03:34:35;43.47;;;21.00;;
62332;SDS011;48624;49.812;8.562;2022-12-18T03:37:03;45.40;;;21.83;;
62332;SDS011;48624;49.812;8.562;2022-12-18T03:39:29;30.83;;;15.10;;
62332;SDS011;48624;49.812;8.562;2022-12-18T03:41:58;31.47;;;18.50;;
62332;SDS011;48624;49.812;8.562;2022-12-18T03:49:28;46.13;;;23.90;;
62332;SDS011;48624;49.812;8.562;2022-12-18T03:52:06;40.80;;;21.13;;
62332;SDS011;48624;49.812;8.562;2022-12-18T03:54:35;52.07;;;23.07;;
62332;SDS011;48624;49.812;8.562;2022-12-18T03:57:07;52.40;;;24.00;;
62332;SDS011;48624;49.812;8.562;2022-12-18T03:59:37;50.20;;;24.67;;
62332;SDS011;48624;49.812;8.562;2022-12-18T04:02:03;54.30;;;26.83;;
62332;SDS011;48624;49.812;8.562;2022-12-18T04:04:31;60.23;;;27.23;;
62332;SDS011;48624;49.812;8.562;2022-12-18T04:06:59;53.47;;;26.30;;
62332;SDS011;48624;49.812;8.562;2022-12-18T04:09:25;50.87;;;24.50;;
62332;SDS011;48624;49.812;8.562;2022-12-18T04:11:51;49.30;;;25.23;;
62332;SDS011;48624;49.812;8.562;2022-12-18T04:14:16;51.77;;;25.87;;
62332;SDS011;48624;49.812;8.562;2022-12-18T04:16:42;41.30;;;20.67;;
62332;SDS011;48624;49.812;8.562;2022-12-18T04:19:07;45.57;;;24.20;;
62332;SDS011;48624;49.812;8.562;2022-12-18T04:21:32;58.13;;;28.30;;
62332;SDS011;48624;49.812;8.562;2022-12-18T04:23:58;48.73;;;24.40;;
62332;SDS011;48624;49.812;8.562;2022-12-18T04:26:23;35.40;;;17.73;;
62332;SDS011;48624;49.812;8.562;2022-12-18T04:28:49;38.90;;;23.40;;
62332;SDS011;48624;49.812;8.562;2022-12-18T04:31:14;49.37;;;24.63;;
62332;SDS011;48624;49.812;8.562;2022-12-18T04:33:39;52.77;;;25.30;;
62332;SDS011;48624;49.812;8.562;2022-12-18T04:36:05;39.03;;;18.97;;
62332;SDS011;48624;49.812;8.562;2022-12-18T04:38:31;39.40;;;21.93;;
62332;SDS011;48624;49.812;8.562;2022-12-18T04:40:56;42.70;;;21.13;;
62332;SDS011;48624;49.812;8.562;2022-12-18T04:43:21;41.67;;;20.23;;
62332;SDS011;48624;49.812;8.562;2022-12-18T04:45:47;43.90;;;20.80;;
62332;SDS011;48624;49.812;8.562;2022-12-18T04:48:12;36.13;;;21.20;;
62332;SDS011;48624;49.812;8.562;2022-12-18T04:50:37;33.90;;;17.77;;
62332;SDS011;48624;49.812;8.562;2022-12-18T04:53:03;40.07;;;19.83;;
62332;SDS011;48624;49.812;8.562;2022-12-18T04:55:28;38.43;;;21.30;;
62332;SDS011;48624;49.812;8.562;2022-12-18T04:57:53;57.50;;;27.33;;
62332;SDS011;48624;49.812;8.562;2022-12-18T05:00:19;59.87;;;25.73;;
62332;SDS011;48624;49.812;8.562;2022-12-18T05:02:45;57.57;;;28.87;;
62332;SDS011;48624;49.812;8.562;2022-12-18T05:05:11;53.60;;;22.73;;
62332;SDS011;48624;49.812;8.562;2022-12-18T05:07:36;54.50;;;26.60;;
62332;SDS011;48624;49.812;8.562;2022-12-18T05:10:01;49.73;;;26.27;;
62332;SDS011;48624;49.812;8.562;2022-12-18T05:12:27;50.77;;;23.80;;
62332;SDS011;48624;49.812;8.562;2022-12-18T05:14:52;52.27;;;24.37;;
62332;SDS011;48624;49.812;8.562;2022-12-18T05:17:17;63.20;;;28.93;;
62332;SDS011;48624;49.812;8.562;2022-12-18T05:19:43;41.80;;;22.50;;
62332;SDS011;48624;49.812;8.562;2022-12-18T05:22:08;52.37;;;22.13;;
62332;SDS011;48624;49.812;8.562;2022-12-18T05:24:34;49.77;;;22.77;;
62332;SDS011;48624;49.812;8.562;2022-12-18T05:26:59;40.40;;;19.83;;
62332;SDS011;48624;49.812;8.562;2022-12-18T05:29:24;47.83;;;23.07;;
62332;SDS011;48624;49.812;8.562;2022-12-18T05:31:50;66.00;;;27.07;;
62332;SDS011;48624;49.812;8.562;2022-12-18T05:34:15;50.30;;;23.83;;
62332;SDS011;48624;49.812;8.562;2022-12-18T05:36:41;50.00;;;21.43;;
62332;SDS011;48624;49.812;8.562;2022-12-18T05:39:06;50.67;;;24.17;;
62332;SDS011;48624;49.812;8.562;2022-12-18T05:41:32;35.53;;;15.53;;
62332;SDS011;48624;49.812;8.562;2022-12-18T05:43:57;46.03;;;18.93;;
62332;SDS011;48624;49.812;8.562;2022-12-18T05:46:23;48.90;;;25.77;;
62332;SDS011;48624;49.812;8.562;2022-12-18T05:48:49;44.60;;;20.00;;
62332;SDS011;48624;49.812;8.562;2022-12-18T05:51:17;36.27;;;16.87;;
62332;SDS011;48624;49.812;8.562;2022-12-18T05:53:45;43.13;;;20.80;;
62332;SDS011;48624;49.812;8.562;2022-12-18T05:56:12;60.40;;;24.70;;
62332;SDS011;48624;49.812;8.562;2022-12-18T05:58:40;56.30;;;24.07;;
62332;SDS011;48624;49.812;8.562;2022-12-18T06:01:10;50.87;;;23.10;;
62332;SDS011;48624;49.812;8.562;2022-12-18T06:03:40;51.47;;;22.70;;
62332;SDS011;48624;49.812;8.562;2022-12-18T06:06:18;57.57;;;27.03;;
62332;SDS011;48624;49.812;8.562;2022-12-18T06:08:45;54.43;;;23.70;;
62332;SDS011;48624;49.812;8.562;2022-12-18T06:11:11;56.40;;;25.90;;
62332;SDS011;48624;49.812;8.562;2022-12-18T06:13:37;61.80;;;28.43;;
62332;SDS011;48624;49.812;8.562;2022-12-18T06:16:04;66.50;;;30.80;;
62332;SDS011;48624;49.812;8.562;2022-12-18T06:18:31;56.93;;;27.37;;
62332;SDS011;48624;49.812;8.562;2022-12-18T06:20:57;58.53;;;25.67;;
62332;SDS011;48624;49.812;8.562;2022-12-18T06:23:22;62.80;;;29.20;;
62332;SDS011;48624;49.812;8.562;2022-12-18T06:25:49;54.87;;;26.53;;
62332;SDS011;48624;49.812;8.562;2022-12-18T06:28:15;47.03;;;24.37;;
62332;SDS011;48624;49.812;8.562;2022-12-18T06:30:42;59.73;;;26.03;;
62332;SDS011;48624;49.812;8.562;2022-12-18T06:33:08;62.70;;;25.90;;
62332;SDS011;48624;49.812;8.562;2022-12-18T06:35:34;53.50;;;24.93;;
62332;SDS011;48624;49.812;8.562;2022-12-18T06:38:00;51.27;;;23.13;;
62332;SDS011;48624;49.812;8.562;2022-12-18T06:40:26;57.17;;;23.67;;
62332;SDS011;48624;49.812;8.562;2022-12-18T06:42:52;46.17;;;22.67;;
62332;SDS011;48624;49.812;8.562;2022-12-18T06:45:17;50.23;;;25.27;;
62332;SDS011;48624;49.812;8.562;2022-12-18T06:47:43;53.97;;;25.20;;
62332;SDS011;48624;49.812;8.562;2022-12-18T06:50:08;49.90;;;22.23;;
62332;SDS011;48624;49.812;8.562;2022-12-18T06:52:34;58.73;;;24.97;;
62332;SDS011;48624;49.812;8.562;2022-12-18T06:54:59;50.83;;;25.87;;
62332;SDS011;48624;49.812;8.562;2022-12-18T06:57:25;36.50;;;20.27;;
62332;SDS011;48624;49.812;8.562;2022-12-18T06:59:50;63.80;;;25.63;;
62332;SDS011;48624;49.812;8.562;2022-12-18T07:02:16;71.43;;;27.03;;
62332;SDS011;48624;49.812;8.562;2022-12-18T07:04:42;56.40;;;26.17;;
62332;SDS011;48624;49.812;8.562;2022-12-18T07:07:07;64.47;;;27.83;;
62332;SDS011;48624;49.812;8.562;2022-12-18T07:09:34;70.53;;;27.63;;
62332;SDS011;48624;49.812;8.562;2022-12-18T07:11:59;59.43;;;27.13;;
62332;SDS011;48624;49.812;8.562;2022-12-18T07:14:25;73.73;;;30.90;;
62332;SDS011;48624;49.812;8.562;2022-12-18T07:16:50;72.73;;;31.40;;
62332;SDS011;48624;49.812;8.562;2022-12-18T07:19:16;73.57;;;27.10;;
62332;SDS011;48624;49.812;8.562;2022-12-18T07:21:41;70.93;;;31.77;;
62332;SDS011;48624;49.812;8.562;2022-12-18T07:24:07;64.93;;;27.07;;
62332;SDS011;48624;49.812;8.562;2022-12-18T07:26:32;73.87;;;29.13;;
62332;SDS011;48624;49.812;8.562;2022-12-18T07:28:58;92.47;;;36.33;;
62332;SDS011;48624;49.812;8.562;2022-12-18T07:31:23;73.90;;;30.70;;
62332;SDS011;48624;49.812;8.562;2022-12-18T07:33:50;71.67;;;28.37;;
62332;SDS011;48624;49.812;8.562;2022-12-18T07:36:16;69.17;;;28.33;;
62332;SDS011;48624;49.812;8.562;2022-12-18T07:38:41;64.73;;;27.53;;
62332;SDS011;48624;49.812;8.562;2022-12-18T07:41:08;66.97;;;29.47;;
62332;SDS011;48624;49.812;8.562;2022-12-18T07:43:36;68.13;;;29.93;;
62332;SDS011;48624;49.812;8.562;2022-12-18T07:46:02;81.50;;;33.03;;
62332;SDS011;48624;49.812;8.562;2022-12-18T07:48:28;56.57;;;24.97;;
62332;SDS011;48624;49.812;8.562;2022-12-18T07:50:57;78.03;;;32.20;;
62332;SDS011;48624;49.812;8.562;2022-12-18T07:53:30;62.23;;;26.10;;
62332;SDS011;48624;49.812;8.562;2022-12-18T07:55:59;64.47;;;27.77;;
62332;SDS011;48624;49.812;8.562;2022-12-18T07:58:26;70.33;;;24.60;;
62332;SDS011;48624;49.812;8.562;2022-12-18T08:00:52;57.00;;;26.40;;
62332;SDS011;48624;49.812;8.562;2022-12-18T08:03:18;67.73;;;29.40;;
62332;SDS011;48624;49.812;8.562;2022-12-18T08:05:43;64.60;;;30.73;;
62332;SDS011;48624;49.812;8.562;2022-12-18T08:08:09;67.70;;;26.57;;
62332;SDS011;48624;49.812;8.562;2022-12-18T08:10:35;61.30;;;25.83;;
62332;SDS011;48624;49.812;8.562;2022-12-18T08:13:01;63.80;;;28.43;;
62332;SDS011;48624;49.812;8.562;2022-12-18T08:15:26;66.63;;;29.27;;
62332;SDS011;48624;49.812;8.562;2022-12-18T08:17:55;70.93;;;31.80;;
62332;SDS011;48624;49.812;8.562;2022-12-18T08:20:21;67.83;;;31.37;;
62332;SDS011;48624;49.812;8.562;2022-12-18T08:22:46;82.43;;;31.47;;
62332;SDS011;48624;49.812;8.562;2022-12-18T08:25:12;64.63;;;30.47;;
62332;SDS011;48624;49.812;8.562;2022-12-18T08:27:37;105.30;;;36.63;;
62332;SDS011;48624;49.812;8.562;2022-12-18T08:30:03;73.20;;;28.70;;
62332;SDS011;48624;49.812;8.562;2022-12-18T08:32:29;59.50;;;24.47;;
62332;SDS011;48624;49.812;8.562;2022-12-18T08:34:54;79.30;;;32.13;;
62332;SDS011;48624;49.812;8.562;2022-12-18T08:37:19;65.90;;;30.30;;
62332;SDS011;48624;49.812;8.562;2022-12-18T08:39:46;96.13;;;40.00;;
62332;SDS011;48624;49.812;8.562;2022-12-18T08:42:11;71.13;;;30.80;;
62332;SDS011;48624;49.812;8.562;2022-12-18T08:44:55;71.93;;;30.03;;
62332;SDS011;48624;49.812;8.562;2022-12-18T08:47:21;76.53;;;32.30;;
62332;SDS011;48624;49.812;8.562;2022-12-18T08:49:46;75.60;;;33.17;;
62332;SDS011;48624;49.812;8.562;2022-12-18T08:52:11;70.17;;;29.63;;
62332;SDS011;48624;49.812;8.562;2022-12-18T08:54:37;70.03;;;31.03;;
62332;SDS011;48624;49.812;8.562;2022-12-18T08:57:02;68.43;;;29.13;;
62332;SDS011;48624;49.812;8.562;2022-12-18T08:59:28;69.57;;;29.70;;
62332;SDS011;48624;49.812;8.562;2022-12-18T09:01:56;66.00;;;29.50;;
62332;SDS011;48624;49.812;8.562;2022-12-18T09:04:21;54.30;;;23.87;;
62332;SDS011;48624;49.812;8.562;2022-12-18T09:06:48;62.23;;;28.60;;
62332;SDS011;48624;49.812;8.562;2022-12-18T09:09:15;64.73;;;26.23;;
62332;SDS011;48624;49.812;8.562;2022-12-18T09:11:42;66.50;;;27.33;;
62332;SDS011;48624;49.812;8.562;2022-12-18T09:14:09;64.43;;;27.17;;
62332;SDS011;48624;49.812;8.562;2022-12-18T09:16:34;71.53;;;31.73;;
62332;SDS011;48624;49.812;8.562;2022-12-18T09:19:00;63.00;;;26.43;;
62332;SDS011;48624;49.812;8.562;2022-12-18T09:21:32;62.43;;;28.17;;
62332;SDS011;48624;49.812;8.562;2022-12-18T09:23:59;55.77;;;26.93;;
62332;SDS011;48624;49.812;8.562;2022-12-18T09:26:25;71.03;;;29.07;;
62332;SDS011;48624;49.812;8.562;2022-12-18T09:28:51;76.67;;;32.07;;
62332;SDS011;48624;49.812;8.562;2022-12-18T09:31:18;72.50;;;28.80;;
62332;SDS011;48624;49.812;8.562;2022-12-18T09:33:45;56.53;;;27.00;;
62332;SDS011;48624;49.812;8.562;2022-12-18T09:36:13;74.37;;;32.03;;
62332;SDS011;48624;49.812;8.562;2022-12-18T09:38:40;68.30;;;28.77;;
62332;SDS011;48624;49.812;8.562;2022-12-18T09:41:14;78.73;;;31.07;;
62332;SDS011;48624;49.812;8.562;2022-12-18T09:43:47;68.73;;;33.17;;
62332;SDS011;48624;49.812;8.562;2022-12-18T09:46:19;60.77;;;25.77;;
62332;SDS011;48624;49.812;8.562;2022-12-18T09:48:55;60.10;;;26.27;;
62332;SDS011;48624;49.812;8.562;2022-12-18T09:51:27;66.30;;;27.83;;
62332;SDS011;48624;49.812;8.562;2022-12-18T09:54:16;58.47;;;26.63;;
62332;SDS011;48624;49.812;8.562;2022-12-18T09:56:49;64.83;;;31.80;;
62332;SDS011;48624;49.812;8.562;2022-12-18T09:59:18;62.77;;;28.33;;
62332;SDS011;48624;49.812;8.562;2022-12-18T10:01:48;71.13;;;31.47;;
62332;SDS011;48624;49.812;8.562;2022-12-18T10:04:13;79.87;;;34.17;;
62332;SDS011;48624;49.812;8.562;2022-12-18T10:09:17;65.60;;;31.67;;
62332;SDS011;48624;49.812;8.562;2022-12-18T10:14:40;75.87;;;33.40;;
62332;SDS011;48624;49.812;8.562;2022-12-18T10:20:05;97.63;;;40.03;;
62332;SDS011;48624;49.812;8.562;2022-12-18T10:22:57;79.67;;;35.23;;
62332;SDS011;48624;49.812;8.562;2022-12-18T10:26:20;102.97;;;43.77;;
62332;SDS011;48624;49.812;8.562;2022-12-18T10:28:36;89.53;;;36.93;;
62332;SDS011;48624;49.812;8.562;2022-12-18T10:31:07;95.33;;;39.37;;
62332;SDS011;48624;49.812;8.562;2022-12-18T10:33:44;91.60;;;44.00;;
62332;SDS011;48624;49.812;8.562;2022-12-18T10:36:09;90.63;;;39.67;;
62332;SDS011;48624;49.812;8.562;2022-12-18T10:38:35;100.63;;;42.50;;
62332;SDS011;48624;49.812;8.562;2022-12-18T10:41:02;81.63;;;36.60;;
62332;SDS011;48624;49.812;8.562;2022-12-18T10:46:00;90.03;;;39.20;;
62332;SDS011;48624;49.812;8.562;2022-12-18T10:48:30;79.13;;;40.00;;
62332;SDS011;48624;49.812;8.562;2022-12-18T10:50:58;81.17;;;38.53;;
62332;SDS011;48624;49.812;8.562;2022-12-18T10:53:26;84.03;;;41.07;;
62332;SDS011;48624;49.812;8.562;2022-12-18T10:55:53;75.60;;;38.20;;
62332;SDS011;48624;49.812;8.562;2022-12-18T10:58:23;79.33;;;36.87;;
62332;SDS011;48624;49.812;8.562;2022-12-18T11:01:08;74.90;;;34.27;;
62332;SDS011;48624;49.812;8.562;2022-12-18T11:06:16;78.80;;;36.77;;
62332;SDS011;48624;49.812;8.562;2022-12-18T11:08:46;75.93;;;34.83;;
62332;SDS011;48624;49.812;8.562;2022-12-18T11:11:23;68.93;;;34.97;;
62332;SDS011;48624;49.812;8.562;2022-12-18T11:13:54;70.43;;;35.03;;
62332;SDS011;48624;49.812;8.562;2022-12-18T11:16:24;69.83;;;36.30;;
62332;SDS011;48624;49.812;8.562;2022-12-18T11:18:50;59.67;;;32.90;;
62332;SDS011;48624;49.812;8.562;2022-12-18T11:21:16;72.50;;;35.23;;
62332;SDS011;48624;49.812;8.562;2022-12-18T11:23:51;69.40;;;34.33;;
62332;SDS011;48624;49.812;8.562;2022-12-18T11:26:18;70.67;;;34.80;;
62332;SDS011;48624;49.812;8.562;2022-12-18T11:28:51;68.67;;;37.03;;
62332;SDS011;48624;49.812;8.562;2022-12-18T11:31:32;74.73;;;35.13;;
62332;SDS011;48624;49.812;8.562;2022-12-18T11:34:14;75.40;;;38.47;;
62332;SDS011;48624;49.812;8.562;2022-12-18T11:36:47;76.03;;;37.47;;
62332;SDS011;48624;49.812;8.562;2022-12-18T11:39:20;78.33;;;35.60;;
62332;SDS011;48624;49.812;8.562;2022-12-18T11:42:04;67.20;;;35.27;;
62332;SDS011;48624;49.812;8.562;2022-12-18T11:44:42;76.27;;;37.73;;
62332;SDS011;48624;49.812;8.562;2022-12-18T11:47:37;69.00;;;35.07;;
62332;SDS011;48624;49.812;8.562;2022-12-18T11:52:42;67.13;;;35.77;;
62332;SDS011;48624;49.812;8.562;2022-12-18T11:55:10;66.33;;;32.87;;
62332;SDS011;48624;49.812;8.562;2022-12-18T11:57:50;64.27;;;34.97;;
62332;SDS011;48624;49.812;8.562;2022-12-18T12:00:23;64.87;;;32.00;;
62332;SDS011;48624;49.812;8.562;2022-12-18T12:17:08;62.10;;;35.23;;
62332;SDS011;48624;49.812;8.562;2022-12-18T12:19:59;71.07;;;36.33;;
62332;SDS011;48624;49.812;8.562;2022-12-18T12:22:58;64.77;;;35.97;;
62332;SDS011;48624;49.812;8.562;2022-12-18T12:25:37;59.47;;;31.90;;
62332;SDS011;48624;49.812;8.562;2022-12-18T12:28:31;66.27;;;35.87;;
62332;SDS011;48624;49.812;8.562;2022-12-18T12:36:28;62.93;;;35.53;;
62332;SDS011;48624;49.812;8.562;2022-12-18T12:39:06;58.13;;;33.23;;
62332;SDS011;48624;49.812;8.562;2022-12-18T12:41:37;105.83;;;52.87;;
62332;SDS011;48624;49.812;8.562;2022-12-18T12:44:27;73.87;;;40.27;;
62332;SDS011;48624;49.812;8.562;2022-12-18T12:46:58;61.53;;;35.63;;
62332;SDS011;48624;49.812;8.562;2022-12-18T12:49:30;66.33;;;36.83;;
62332;SDS011;48624;49.812;8.562;2022-12-18T12:52:04;60.43;;;36.03;;
62332;SDS011;48624;49.812;8.562;2022-12-18T12:54:35;107.77;;;49.47;;
62332;SDS011;48624;49.812;8.562;2022-12-18T12:57:03;67.23;;;36.67;;
62332;SDS011;48624;49.812;8.562;2022-12-18T13:00:09;54.53;;;32.73;;
62332;SDS011;48624;49.812;8.562;2022-12-18T13:02:45;65.70;;;35.93;;
62332;SDS011;48624;49.812;8.562;2022-12-18T13:07:57;67.90;;;32.73;;
62332;SDS011;48624;49.812;8.562;2022-12-18T13:13:05;63.70;;;34.73;;
62332;SDS011;48624;49.812;8.562;2022-12-18T13:20:34;63.20;;;34.97;;
62332;SDS011;48624;49.812;8.562;2022-12-18T13:34:19;62.53;;;32.17;;
62332;SDS011;48624;49.812;8.562;2022-12-18T13:36:51;62.20;;;34.23;;
62332;SDS011;48624;49.812;8.562;2022-12-18T13:41:45;70.57;;;36.27;;
62332;SDS011;48624;49.812;8.562;2022-12-18T13:46:54;60.23;;;32.23;;
62332;SDS011;48624;49.812;8.562;2022-12-18T13:49:38;66.40;;;34.17;;
62332;SDS011;48624;49.812;8.562;2022-12-18T13:52:16;62.47;;;33.57;;
62332;SDS011;48624;49.812;8.562;2022-12-18T13:54:56;59.33;;;32.83;;
62332;SDS011;48624;49.812;8.562;2022-12-18T13:59:56;63.67;;;34.87;;
62332;SDS011;48624;49.812;8.562;2022-12-18T14:02:26;69.10;;;34.67;;
62332;SDS011;48624;49.812;8.562;2022-12-18T14:04:54;68.97;;;35.37;;
62332;SDS011;48624;49.812;8.562;2022-12-18T14:07:23;70.67;;;37.87;;
62332;SDS011;48624;49.812;8.562;2022-12-18T14:09:57;63.30;;;33.57;;
62332;SDS011;48624;49.812;8.562;2022-12-18T14:12:26;77.53;;;38.13;;
62332;SDS011;48624;49.812;8.562;2022-12-18T14:20:48;69.30;;;37.03;;
62332;SDS011;48624;49.812;8.562;2022-12-18T14:23:32;68.87;;;36.50;;
62332;SDS011;48624;49.812;8.562;2022-12-18T14:26:25;70.43;;;37.07;;
62332;SDS011;48624;49.812;8.562;2022-12-18T14:28:59;66.20;;;34.83;;
62332;SDS011;48624;49.812;8.562;2022-12-18T14:31:27;73.93;;;37.63;;
62332;SDS011;48624;49.812;8.562;2022-12-18T14:33:54;67.50;;;35.07;;
62332;SDS011;48624;49.812;8.562;2022-12-18T14:36:21;71.57;;;34.70;;
62332;SDS011;48624;49.812;8.562;2022-12-18T14:38:52;64.83;;;36.70;;
62332;SDS011;48624;49.812;8.562;2022-12-18T14:41:20;68.53;;;35.93;;
62332;SDS011;48624;49.812;8.562;2022-12-18T14:43:47;63.90;;;34.43;;
62332;SDS011;48624;49.812;8.562;2022-12-18T14:49:00;67.13;;;35.57;;
62332;SDS011;48624;49.812;8.562;2022-12-18T14:51:41;71.53;;;38.20;;
62332;SDS011;48624;49.812;8.562;2022-12-18T14:54:18;75.50;;;38.77;;
62332;SDS011;48624;49.812;8.562;2022-12-18T14:56:45;64.77;;;36.57;;
62332;SDS011;48624;49.812;8.562;2022-12-18T14:59:20;76.00;;;39.43;;
62332;SDS011;48624;49.812;8.562;2022-12-18T15:04:39;85.97;;;42.47;;
62332;SDS011;48624;49.812;8.562;2022-12-18T15:07:19;80.23;;;45.97;;
62332;SDS011;48624;49.812;8.562;2022-12-18T15:10:10;98.30;;;57.87;;
62332;SDS011;48624;49.812;8.562;2022-12-18T15:12:41;77.87;;;40.70;;
62332;SDS011;48624;49.812;8.562;2022-12-18T15:18:03;77.40;;;39.97;;
62332;SDS011;48624;49.812;8.562;2022-12-18T15:20:31;87.77;;;45.00;;
62332;SDS011;48624;49.812;8.562;2022-12-18T15:23:16;74.67;;;41.87;;
62332;SDS011;48624;49.812;8.562;2022-12-18T15:25:45;81.63;;;42.30;;
62332;SDS011;48624;49.812;8.562;2022-12-18T15:28:54;77.23;;;42.83;;
62332;SDS011;48624;49.812;8.562;2022-12-18T15:31:33;68.73;;;36.57;;
62332;SDS011;48624;49.812;8.562;2022-12-18T15:34:05;72.30;;;38.13;;
62332;SDS011;48624;49.812;8.562;2022-12-18T15:36:38;62.27;;;35.80;;
62332;SDS011;48624;49.812;8.562;2022-12-18T15:39:04;71.13;;;35.80;;
62332;SDS011;48624;49.812;8.562;2022-12-18T15:41:30;71.37;;;35.70;;
62332;SDS011;48624;49.812;8.562;2022-12-18T15:43:58;69.60;;;38.20;;
62332;SDS011;48624;49.812;8.562;2022-12-18T15:46:23;71.27;;;37.53;;
62332;SDS011;48624;49.812;8.562;2022-12-18T15:48:53;77.03;;;41.37;;
62332;SDS011;48624;49.812;8.562;2022-12-18T15:53:52;71.50;;;37.37;;
62332;SDS011;48624;49.812;8.562;2022-12-18T15:56:19;74.57;;;39.30;;
62332;SDS011;48624;49.812;8.562;2022-12-18T15:59:15;78.57;;;41.80;;
62332;SDS011;48624;49.812;8.562;2022-12-18T16:01:48;75.67;;;41.37;;
62332;SDS011;48624;49.812;8.562;2022-12-18T16:04:17;78.13;;;40.90;;
62332;SDS011;48624;49.812;8.562;2022-12-18T16:06:45;81.83;;;42.30;;
62332;SDS011;48624;49.812;8.562;2022-12-18T16:09:10;82.80;;;42.03;;
62332;SDS011;48624;49.812;8.562;2022-12-18T16:11:36;86.23;;;44.93;;
62332;SDS011;48624;49.812;8.562;2022-12-18T16:14:17;89.53;;;50.37;;
62332;SDS011;48624;49.812;8.562;2022-12-18T16:16:44;73.23;;;37.33;;
62332;SDS011;48624;49.812;8.562;2022-12-18T16:19:11;79.57;;;43.93;;